Catàleg de serveis del Meteocat
Campanya meteocatpedra

Dades de l'estació automàtica la Vall d'en Bas

?
?
Resum diari 22:00 TU
Dades diàries de l'estació meteorològica
Temperatura mitjana 12.5 °C
Temperatura màxima 16.8 °C 10:59 TU
Temperatura mínima 8.8 °C 5:30 TU
Humitat relativa mitjana 71%
Precipitació acumulada 0.0 mm
Ratxa màxima del vent (2 m) 25.9 km/h - 72º 13:04 TU
Irradiació solar global 13.5 MJ/m2

El tram horari està expressat en Temps Universal (TU). Cal sumar una hora en horari d'hivern i dues en horari d'estiu per passar a l'hora oficial.

la Vall d'en Bas

Metadades estació meteorol´gica
Municipi La Vall d'en Bas
Comarca Garrotxa
Altitud 461 m
Data alta 16.03.2000
Estat actual Operativa
Dades de període
Període
TU
TM
°C
TX
°C
TN
°C
HRM
%
PPT
mm
VVM (2 m)
km/h
DVM (2 m)
graus
VVX (2 m)
km/h
RS
W/m2
00:00 - 00:30 11.1 11.2 11.0 88 0.0 2.2 206 5.8 0
00:30 - 01:00 11.0 11.0 10.9 90 0.0 2.2 236 4.0 0
01:00 - 01:30 10.9 11.0 10.8 90 0.0 2.9 241 5.8 0
01:30 - 02:00 10.7 10.8 10.7 91 0.0 2.2 209 4.0 0
02:00 - 02:30 10.7 10.8 10.4 91 0.0 1.1 231 2.9 0
02:30 - 03:00 10.3 10.4 10.0 94 0.0 0.7 227 2.2 0
03:00 - 03:30 9.8 9.9 9.5 100 0.0 1.4 210 2.5 0
03:30 - 04:00 9.5 9.6 9.5 100 0.0 0.4 114 2.2 0
04:00 - 04:30 9.5 9.6 9.4 100 0.0 1.4 69 4.7 0
04:30 - 05:00 9.3 9.6 9.1 100 0.0 2.2 263 5.4 0
05:00 - 05:30 9.0 9.2 8.8 100 0.0 1.8 200 4.3 5
05:30 - 06:00 9.0 9.2 8.8 100 0.0 1.1 239 2.9 18
06:00 - 06:30 9.5 9.6 9.2 100 0.0 1.1 226 2.9 31
06:30 - 07:00 9.9 10.0 9.6 97 0.0 2.2 221 4.0 66
07:00 - 07:30 10.5 11.0 10.0 93 0.0 0.7 159 3.2 128
07:30 - 08:00 11.5 12.0 11.0 88 0.0 1.1 52 4.3 225
08:00 - 08:30 12.3 12.5 11.9 80 0.0 1.4 52 5.0 246
08:30 - 09:00 13.0 13.5 12.6 78 0.0 2.5 49 7.2 341
09:00 - 09:30 13.8 14.2 13.4 66 0.0 3.2 3 7.6 474
09:30 - 10:00 14.6 15.0 13.9 61 0.0 2.9 243 9.4 430
10:00 - 10:30 14.8 15.5 14.6 60 0.0 4.3 54 10.1 390
10:30 - 11:00 16.4 16.8 15.7 54 0.0 5.0 65 12.6 794
11:00 - 11:30 16.4 16.8 16.1 54 0.0 7.2 42 16.2 515
11:30 - 12:00 16.3 16.6 16.0 56 0.0 8.6 33 16.6 444
12:00 - 12:30 15.9 16.1 15.5 54 0.0 10.8 80 19.4 254
12:30 - 13:00 15.5 15.6 15.4 55 0.0 12.6 85 22.0 331
13:00 - 13:30 15.8 16.5 15.5 55 0.0 12.2 71 25.9 515
13:30 - 14:00 15.8 16.7 15.4 52 0.0 12.6 69 25.2 394
14:00 - 14:30 15.5 15.8 15.2 49 0.0 12.2 75 23.4 282
14:30 - 15:00 15.4 15.6 15.1 49 0.0 12.2 41 21.2 357
15:00 - 15:30 15.4 15.8 15.1 46 0.0 11.9 61 23.0 344
15:30 - 16:00 15.4 15.6 15.2 46 0.0 9.4 50 20.2 364
16:00 - 16:30 15.4 15.6 15.0 42 0.0 10.8 67 23.0 248
16:30 - 17:00 14.7 15.0 14.5 43 0.0 11.9 47 19.8 185
17:00 - 17:30 14.4 14.5 14.2 45 0.0 9.4 50 18.4 102
17:30 - 18:00 13.9 14.3 13.6 49 0.0 9.4 37 15.1 49
18:00 - 18:30 13.2 13.6 13.0 52 0.0 9.0 30 14.0 13
18:30 - 19:00 12.7 13.0 12.4 55 0.0 6.5 18 11.9 0
19:00 - 19:30 12.1 12.6 11.5 57 0.0 3.2 22 5.4 0
19:30 - 20:00 11.0 11.3 10.8 62 0.0 1.1 131 4.3 0
20:00 - 20:30 10.1 10.8 9.5 68 0.0 1.8 325 4.7 0
20:30 - 21:00 9.7 10.0 9.3 68 0.0 2.2 261 5.4 0
21:00 - 21:30 9.8 10.2 9.5 67 0.0 2.5 43 6.8 0
21:30 - 22:00 9.8 10.2 9.3 67 0.0 6.5 30 10.8 0
22:00 - 22:30 9.7 10.3 9.2 68 0.0 6.1 29 10.8 0

Les dades en taronja només han passat un control de qualitat automàtic. Resta pendent la seva validació definitiva.